Thunder radar more information blitzortung!


Radar de pluja more information rain snow radar


Visita la nostra xarxa de llocs de meteo:

Template documentation
and downloads

And another site



Extreme low temperature From: 13-12-2017 09:00 Until: 09:59 warning for: Extreme low temperature Level: Yellow info button

Pagina Historial Weather Underground text

Diari Resum May 28, 2017 Unitats:  Imperial    Mètric   Tant
« Previous Dia
SegĂźent Dia »
Diari Setmana Mensual Anual Personalitzada
  Maxima: Minima: Media:
Temperatura: 82 °F 58.8 °F 72.7 °F
Punt de rosada: 58.3 °F 46 °F 51.6 °F
Humitat: 81 % 32 % 50 %
Wind Speed: 12.7 mph 0 mph 4.7 mph
RĂ fegues de vent: 12.7 mph - -
Vent:- - ESE
Pression baro: 30.1 in 30 in -
Precipitacions: 0 in    
Historical Graphs
 
 
Dades de taula per May 28, 2017
Temps Temperatura Punt de rosada Pression baro Vent Wind Speed RĂ fegues de vent Humitat Rainfall Rate (Hourly)
00:00 59.7 °F 53.4 °F 30.1 in SW 2 mph 2 mph 80 % 0 in
00:04 65.8 °F 56.7 °F 30.1 in NNE 1.2 mph   72 % 0 in
00:09 65.7 °F 56.5 °F 30.1 in Calm     72 % 0 in
00:10 59.5 °F 53.8 °F 30.1 in SW 1 mph 2 mph 81 % 0 in
00:14 65.7 °F 56.5 °F 30.1 in ENE 1.2 mph 1.2 mph 72 % 0 in
00:20 59.4 °F 53.4 °F 30.1 in SW 1 mph 2 mph 81 % 0 in
00:30 59.2 °F 53.1 °F 30.1 in Calm   2 mph 80 % 0 in
00:40 59.2 °F 53.4 °F 30.1 in SW 1 mph 1 mph 81 % 0 in
00:50 59.4 °F 53.2 °F 30.1 in WSW 2 mph 2 mph 80 % 0 in
01:00 58.8 °F 53.1 °F 30.1 in Calm   2 mph 81 % 0 in
01:10 58.8 °F 53.1 °F 30.1 in WSW 1 mph 2 mph 81 % 0 in
01:20 58.8 °F 52.7 °F 30.1 in WSW 2 mph 2 mph 80 % 0 in
01:30 59 °F 52.9 °F 30.1 in WSW 1 mph 2 mph 80 % 0 in
01:40 59 °F 52.9 °F 30.1 in SW 1 mph 2 mph 80 % 0 in
01:50 59 °F 53.2 °F 30.1 in SW 1 mph 2 mph 81 % 0 in
02:00 59.2 °F 53.4 °F 30.1 in Calm   2 mph 81 % 0 in
02:10 59.5 °F 53.8 °F 30.1 in SW 1 mph 2 mph 81 % 0 in
02:20 59.9 °F 53.8 °F 30.1 in SW 1 mph 2 mph 80 % 0 in
02:30 60.6 °F 54.3 °F 30.1 in Calm   1 mph 80 % 0 in
02:40 60.8 °F 54.1 °F 30.1 in WSW 2 mph 2 mph 79 % 0 in
02:50 61.2 °F 54.7 °F 30.1 in SW 2 mph 2 mph 79 % 0 in
03:00 61.5 °F 54.9 °F 30.1 in SW 1 mph 2 mph 79 % 0 in
03:10 63.5 °F 56.1 °F 30.1 in SSW 1 mph 1 mph 77 % 0 in
03:20 64.4 °F 56.3 °F 30.1 in South 1 mph 2 mph 75 % 0 in
03:30 64.6 °F 56.1 °F 30.1 in SW 1 mph 2 mph 74 % 0 in
03:40 64.6 °F 56.1 °F 30.1 in SW 2 mph 2 mph 74 % 0 in
03:50 65.8 °F 56.8 °F 30.1 in Calm   1 mph 73 % 0 in
04:00 67.5 °F 57.4 °F 30.1 in SW 1 mph 2 mph 70 % 0 in
04:10 67.6 °F 57 °F 30.1 in SW 1 mph 3 mph 69 % 0 in
04:20 69.1 °F 56.8 °F 30.1 in SSW 2 mph 2 mph 65 % 0 in
04:30 70.3 °F 57.9 °F 30.1 in SSE 1 mph 2 mph 65 % 0 in
04:40 71.6 °F 57.4 °F 30.1 in ESE 1 mph 2 mph 61 % 0 in
04:50 73 °F 58.3 °F 30.1 in Calm   2 mph 60 % 0 in
05:00 73 °F 57.9 °F 30.1 in NNE 2 mph 3 mph 59 % 0 in
05:10 73.2 °F 57 °F 30.1 in NNE 1 mph 3 mph 57 % 0 in
05:20 74.1 °F 56.8 °F 30.1 in NE 3 mph 3 mph 55 % 0 in
05:30 75.2 °F 56.8 °F 30.1 in NE 3 mph 6 mph 53 % 0 in
05:40 75.9 °F 57 °F 30.1 in NNE 3 mph 4 mph 52 % 0 in
05:50 76.3 °F 55.8 °F 30.1 in NE 3 mph 4 mph 49 % 0 in
06:00 77.4 °F 56.1 °F 30.1 in ENE 2 mph 3 mph 48 % 0 in
11:07 77 °F 55.8 °F 30.1 in ENE 3.5 mph 3.5 mph 48 % 0 in
11:12 77.4 °F 55 °F 30.1 in ESE 4.6 mph 4.6 mph 46 % 0 in
11:17 77.4 °F 55 °F 30.1 in ESE 4.6 mph 4.6 mph 46 % 0 in
11:22 78.1 °F 55.6 °F 30.1 in SE 2.6 mph 2.6 mph 46 % 0 in
11:27 79.3 °F 56.8 °F 30.1 in NNE 4.6 mph 4.6 mph 46 % 0 in
11:32 78.4 °F 55.9 °F 30.1 in ESE 4.6 mph 4.6 mph 46 % 0 in
11:37 78.3 °F 55.2 °F 30.1 in East 4.6 mph 4.6 mph 45 % 0 in
11:42 79.5 °F 56.3 °F 30.1 in NNW 3.5 mph 3.5 mph 45 % 0 in
11:47 79 °F 55.2 °F 30.1 in ESE 6 mph 6 mph 44 % 0 in
11:52 79.5 °F 56.3 °F 30.1 in WSW 1.6 mph   45 % 0 in
11:57 80.2 °F 57 °F 30.1 in NW 3.5 mph 3.5 mph 45 % 0 in
12:02 80.6 °F 55.4 °F 30.1 in ESE 4.6 mph 4.6 mph 42 % 0 in
12:07 80.1 °F 55.6 °F 30.1 in ESE 4.6 mph 4.6 mph 43 % 0 in
12:12 80.4 °F 55.2 °F 30.1 in ESE 5.8 mph 5.8 mph 42 % 0 in
12:17 80.1 °F 54.1 °F 30.1 in ESE 4.6 mph 4.6 mph 41 % 0 in
12:22 80.6 °F 54 °F 30.1 in ENE 3.5 mph 3.5 mph 40 % 0 in
12:27 80.2 °F 54.3 °F 30.1 in ENE 4.6 mph 4.6 mph 41 % 0 in
12:32 80.6 °F 53.4 °F 30.1 in SE 4.6 mph 4.6 mph 39 % 0 in
12:37 80.1 °F 52.9 °F 30.1 in SE 6.9 mph 6.9 mph 39 % 0 in
12:47 81.5 °F 53.4 °F 30.1 in ESE 9.2 mph 9.2 mph 38 % 0 in
12:52 81 °F 53.8 °F 30.1 in ENE 5.8 mph 5.8 mph 39 % 0 in
12:57 81.3 °F 53.2 °F 30.1 in NE 5.8 mph 5.8 mph 38 % 0 in
13:02 81.5 °F 54.1 °F 30.1 in ENE 5.8 mph 5.8 mph 39 % 0 in
13:07 81.1 °F 53.8 °F 30.1 in East 4.6 mph 4.6 mph 39 % 0 in
13:12 81 °F 52.2 °F 30.1 in ESE 10.4 mph 10.4 mph 37 % 0 in
13:17 81.3 °F 52.5 °F 30.1 in ENE 6.9 mph 6.9 mph 37 % 0 in
13:27 81.3 °F 52.5 °F 30.1 in ENE 8.1 mph 8.1 mph 37 % 0 in
13:32 81.7 °F 53.6 °F 30.1 in East 9.2 mph 9.2 mph 38 % 0 in
13:37 81.5 °F 52.7 °F 30.1 in ESE 8.1 mph 8.1 mph 37 % 0 in
13:42 81.1 °F 52.3 °F 30.1 in ESE 6.9 mph 6.9 mph 37 % 0 in
13:47 81.1 °F 53.1 °F 30.1 in SE 9.2 mph 9.2 mph 38 % 0 in
13:52 81.1 °F 52.3 °F 30.1 in SE 9.2 mph 9.2 mph 37 % 0 in
13:57 81.3 °F 52.5 °F 30.1 in ESE 8.1 mph 8.1 mph 37 % 0 in
14:02 81.3 °F 53.2 °F 30.1 in ESE 8.1 mph 8.1 mph 38 % 0 in
14:07 81.3 °F 53.2 °F 30.1 in East 5.9 mph 5.9 mph 38 % 0 in
14:12 80.8 °F 52.9 °F 30.1 in East 10 mph 10 mph 38 % 0 in
14:17 81.3 °F 53.2 °F 30.1 in ENE 6.9 mph 6.9 mph 38 % 0 in
14:22 81.3 °F 52.5 °F 30.1 in East 5.8 mph 5.8 mph 37 % 0 in
14:27 81 °F 52.2 °F 30.1 in NNE 10.4 mph 10.4 mph 37 % 0 in
14:32 81.3 °F 52.5 °F 30.1 in East 8.1 mph 8.1 mph 37 % 0 in
14:37 81.5 °F 52.7 °F 30.1 in ESE 6.9 mph 6.9 mph 37 % 0 in
14:42 81.9 °F 53.1 °F 30.1 in East 5.8 mph 5.8 mph 37 % 0 in
14:47 81.9 °F 53.1 °F 30.1 in ESE 6.9 mph 6.9 mph 37 % 0 in
14:52 81.5 °F 52.7 °F 30.1 in ESE 9.2 mph 9.2 mph 37 % 0 in
14:57 82 °F 54 °F 30.1 in East 5.8 mph 5.8 mph 38 % 0 in
15:02 81.5 °F 53.4 °F 30.1 in ESE 11.2 mph 11.2 mph 38 % 0 in
15:07 80.8 °F 52.9 °F 30.1 in ESE 8.1 mph 8.1 mph 38 % 0 in
15:12 81.1 °F 53.1 °F 30.1 in East 8.1 mph 8.1 mph 38 % 0 in
15:17 80.8 °F 52.9 °F 30.1 in East 8.1 mph 8.1 mph 38 % 0 in
15:22 80.6 °F 52.5 °F 30.1 in ESE 9.2 mph 9.2 mph 38 % 0 in
15:23 80.6 °F 52.5 °F 30.1 in ESE 9.2 mph 9.2 mph 38 % 0 in
15:28 81 °F 53.1 °F 30.1 in ESE 12.1 mph 12.1 mph 38 % 0 in
15:33 80.6 °F 52 °F 30.1 in SSE 8.1 mph 8.1 mph 37 % 0 in
15:38 80.8 °F 52.2 °F 30.1 in SE 10.4 mph 10.4 mph 37 % 0 in
15:43 81 °F 53.1 °F 30.1 in East 8.1 mph 8.1 mph 38 % 0 in
15:48 80.4 °F 52.5 °F 30.1 in ESE 11.5 mph 11.5 mph 38 % 0 in
15:53 80.1 °F 52.2 °F 30.1 in East 9.2 mph 9.2 mph 38 % 0 in
15:58 80.2 °F 52.3 °F 30.1 in ESE 8.1 mph 8.1 mph 38 % 0 in
16:03 79.9 °F 51.3 °F 30.1 in ESE 10.4 mph 10.4 mph 37 % 0 in
16:08 79.7 °F 51.1 °F 30.1 in ENE 12.7 mph 12.7 mph 37 % 0 in
16:13 79.9 °F 51.3 °F 30.1 in East 11.5 mph 11.5 mph 37 % 0 in
16:18 80.4 °F 51.8 °F 30.1 in ENE 8.1 mph 8.1 mph 37 % 0 in
16:23 80.1 °F 51.4 °F 30 in ESE 9.2 mph 9.2 mph 37 % 0 in
16:28 80.4 °F 51.1 °F 30 in East 8.1 mph 8.1 mph 36 % 0 in
16:33 80.6 °F 50.4 °F 30 in East 9.2 mph 9.2 mph 35 % 0 in
16:38 80.6 °F 49.6 °F 30 in East 9.2 mph 9.2 mph 34 % 0 in
16:43 80.2 °F 50.2 °F 30 in ENE 10.4 mph 10.4 mph 35 % 0 in
16:48 80.2 °F 49.3 °F 30 in ESE 10.4 mph 10.4 mph 34 % 0 in
16:53 79.9 °F 48.9 °F 30.1 in ESE 8.1 mph 8.1 mph 34 % 0 in
16:58 79.9 °F 49.8 °F 30.1 in ENE 8.1 mph 8.1 mph 35 % 0 in
17:03 79.9 °F 48.9 °F 30.1 in South 8.7 mph 8.7 mph 34 % 0 in
17:08 79.5 °F 47.8 °F 30.1 in ENE 9.2 mph 9.2 mph 33 % 0 in
17:13 79.3 °F 48.6 °F 30.1 in ESE 10.4 mph 10.4 mph 34 % 0 in
17:18 79.2 °F 48.4 °F 30.1 in East 12.7 mph 12.7 mph 34 % 0 in
17:23 79.2 °F 48.4 °F 30.1 in ENE 10.2 mph 10.2 mph 34 % 0 in
17:28 79 °F 48.2 °F 30.1 in East 11.5 mph 11.5 mph 34 % 0 in
17:33 79.2 °F 47.7 °F 30.1 in ESE 10.4 mph 10.4 mph 33 % 0 in
17:38 79.3 °F 47.7 °F 30.1 in ESE 10.4 mph 10.4 mph 33 % 0 in
17:43 79.2 °F 47.7 °F 30.1 in ESE 8.1 mph 8.1 mph 33 % 0 in
17:48 79.2 °F 46.8 °F 30.1 in ESE 11.5 mph 11.5 mph 32 % 0 in
17:53 79 °F 47.5 °F 30.1 in ESE 10.4 mph 10.4 mph 33 % 0 in
17:58 78.8 °F 47.3 °F 30.1 in ESE 11.5 mph 11.5 mph 33 % 0 in
18:03 78.4 °F 46 °F 30.1 in East 10.4 mph 10.4 mph 32 % 0 in
18:08 78.3 °F 46.8 °F 30.1 in SE 10.4 mph 10.4 mph 33 % 0 in
18:13 78.3 °F 47.7 °F 30.1 in ESE 10.4 mph 10.4 mph 34 % 0 in
18:18 77.9 °F 47.3 °F 30.1 in ESE 10.4 mph 10.4 mph 34 % 0 in
18:23 77.9 °F 48 °F 30 in ESE 6.9 mph 6.9 mph 35 % 0 in
18:28 77.5 °F 47.7 °F 30 in ESE 10.4 mph 10.4 mph 35 % 0 in
18:33 77.5 °F 47.7 °F 30 in ESE 8.1 mph 8.1 mph 35 % 0 in
18:38 77.4 °F 47.7 °F 30 in ESE 12.7 mph 12.7 mph 35 % 0 in
18:43 77.4 °F 48.4 °F 30 in East 8.1 mph 8.1 mph 36 % 0 in
18:48 77 °F 48 °F 30 in East 11.5 mph 11.5 mph 36 % 0 in
18:53 76.6 °F 48.4 °F 30 in SE 10.4 mph 10.4 mph 37 % 0 in
18:58 76.5 °F 48.2 °F 30 in ESE 11.5 mph 11.5 mph 37 % 0 in
19:03 76.3 °F 48 °F 30 in ESE 8.1 mph 8.1 mph 37 % 0 in
19:08 76.3 °F 48 °F 30 in ENE 8.1 mph 8.1 mph 37 % 0 in
19:13 76.1 °F 47.8 °F 30 in ESE 9.2 mph 9.2 mph 37 % 0 in
19:18 76.1 °F 48.6 °F 30 in ESE 8.1 mph 8.1 mph 38 % 0 in
19:20 66.6 °F 50.7 °F 30.1 in Calm     57 % 0 in
19:23 76.1 °F 49.3 °F 30 in SE 5.8 mph 5.8 mph 39 % 0 in
19:28 75.9 °F 48.6 °F 30 in ESE 6.2 mph 6.2 mph 38 % 0 in
19:30 66.2 °F 51.1 °F 30.1 in Calm     58 % 0 in
19:33 75.7 °F 48.9 °F 30 in East 9.2 mph 9.2 mph 39 % 0 in
19:38 75.6 °F 48.9 °F 30 in South 5.8 mph 5.8 mph 39 % 0 in
19:40 66 °F 51.3 °F 30.1 in NE 1 mph 1 mph 59 % 0 in
19:43 75.7 °F 48.9 °F 30 in SE 5.8 mph 5.8 mph 39 % 0 in
19:48 75.6 °F 49.5 °F 30 in SE 7.8 mph 7.8 mph 40 % 0 in
19:50 65.7 °F 51.4 °F 30.1 in Calm   1 mph 60 % 0 in
19:53 75 °F 49.1 °F 30 in ESE 6.9 mph 6.9 mph 40 % 0 in
19:58 75 °F 49.1 °F 30 in South 4.6 mph 4.6 mph 40 % 0 in
20:00 65.1 °F 50.9 °F 30.1 in ENE 1 mph 1 mph 60 % 0 in
20:03 74.5 °F 48.6 °F 30 in ESE 5.8 mph 5.8 mph 40 % 0 in
20:08 74.3 °F 48.4 °F 30 in ESE 6.9 mph 6.9 mph 40 % 0 in
20:10 64.8 °F 51.1 °F 30.1 in ENE 1 mph 2 mph 61 % 0 in
20:13 73.9 °F 48.7 °F 30 in ESE 7.6 mph 7.6 mph 41 % 0 in
20:18 73.8 °F 48.6 °F 30 in ENE 6.9 mph 6.9 mph 41 % 0 in
20:20 64.4 °F 50.7 °F 30.1 in Calm   2 mph 61 % 0 in
20:23 73.6 °F 48.4 °F 30 in SSE 8.1 mph 8.1 mph 41 % 0 in
20:28 73.4 °F 48.9 °F 30 in East 5.8 mph 5.8 mph 42 % 0 in
20:30 64.2 °F 50.5 °F 30.1 in Calm   1 mph 61 % 0 in
20:33 73 °F 49.3 °F 30 in East 6.2 mph 6.2 mph 43 % 0 in
20:38 72.9 °F 49.6 °F 30 in East 4.6 mph 4.6 mph 44 % 0 in
20:40 64 °F 50.7 °F 30.1 in Calm   1 mph 62 % 0 in
20:43 72.5 °F 49.3 °F 30 in ESE 4 mph 4 mph 44 % 0 in
20:48 72.3 °F 49.3 °F 30 in ESE 3.5 mph 3.5 mph 44 % 0 in
20:50 63.7 °F 50.4 °F 30.1 in NE 1 mph 2 mph 62 % 0 in
20:53 72.1 °F 49.6 °F 30 in ESE 4.6 mph 4.6 mph 45 % 0 in
20:58 72 °F 49.5 °F 30 in ESE 4.6 mph 4.6 mph 45 % 0 in
21:00 63.5 °F 50.7 °F 30.1 in NE 1 mph 2 mph 63 % 0 in
21:03 71.8 °F 49.3 °F 30 in ESE 6.9 mph 6.9 mph 45 % 0 in
21:08 71.6 °F 49.6 °F 30 in ESE 3.5 mph 3.5 mph 46 % 0 in
21:10 63.3 °F 50.5 °F 30 in Calm   1 mph 63 % 0 in
21:13 71.6 °F 49.6 °F 30 in SE 4.6 mph 4.6 mph 46 % 0 in
21:18 71.4 °F 50.2 °F 30 in ESE 4.6 mph 4.6 mph 47 % 0 in
21:20 63.3 °F 50.5 °F 30 in NE 1 mph 2 mph 63 % 0 in
21:23 71.1 °F 49.8 °F 30 in SSE 3.5 mph 3.5 mph 47 % 0 in
21:28 71.1 °F 49.8 °F 30 in East 3.5 mph 3.5 mph 47 % 0 in
21:30 63 °F 50.2 °F 30 in NE 1 mph 1 mph 63 % 0 in
21:33 70.9 °F 49.6 °F 30 in SE 2.3 mph 2.3 mph 47 % 0 in
21:38 70.7 °F 50 °F 30 in East 2.3 mph 2.3 mph 48 % 0 in
21:40 63 °F 49.6 °F 30 in NE 1 mph 2 mph 62 % 0 in
21:43 70.3 °F 49.6 °F 30 in ENE 2.4 mph 2.4 mph 48 % 0 in
21:48 70.2 °F 49.5 °F 30 in ESE 2.3 mph 2.3 mph 48 % 0 in
21:50 62.8 °F 50 °F 30 in Calm   1 mph 63 % 0 in
21:53 70.2 °F 49.5 °F 30.1 in NE 2.3 mph 2.3 mph 48 % 0 in
21:58 70 °F 49.8 °F 30.1 in ENE 2.3 mph   49 % 0 in
22:00 62.4 °F 50.2 °F 30 in Calm     64 % 0 in
22:03 69.8 °F 49.8 °F 30.1 in ENE 2.3 mph 2.3 mph 49 % 0 in
22:08 69.8 °F 49.8 °F 30.1 in NNE 2.9 mph 2.9 mph 49 % 0 in
22:10 62.2 °F 50.4 °F 30 in Calm     65 % 0 in
22:13 69.6 °F 50.2 °F 30.1 in ENE 2.3 mph 2.3 mph 50 % 0 in
22:18 69.4 °F 50 °F 30.1 in NNE 2.3 mph 2.3 mph 50 % 0 in
22:20 61.7 °F 49.8 °F 30 in NE 1 mph 1 mph 65 % 0 in
22:23 69.4 °F 50.5 °F 30.1 in NE 3.5 mph 3.5 mph 51 % 0 in
22:28 69.4 °F 50.5 °F 30.1 in NE 2.3 mph 2.3 mph 51 % 0 in
22:30 61.2 °F 49.6 °F 30 in Calm   1 mph 66 % 0 in
22:33 69.3 °F 50.4 °F 30.1 in NE 2.4 mph 2.4 mph 51 % 0 in
22:38 69.3 °F 50.4 °F 30.1 in NNE 2.3 mph 2.3 mph 51 % 0 in
22:40 60.8 °F 49.5 °F 30 in Calm     66 % 0 in
22:43 68.9 °F 50.5 °F 30.1 in NNE 2.3 mph 2.3 mph 52 % 0 in
22:48 68.9 °F 50.5 °F 30.1 in NE 2.3 mph 2.3 mph 52 % 0 in
22:50 60.4 °F 48.6 °F 30 in Calm     65 % 0 in
22:53 68.7 °F 50.9 °F 30.1 in NE 1.2 mph   53 % 0 in
22:58 68.5 °F 50.7 °F 30.1 in NNE 1.4 mph 1.4 mph 53 % 0 in
23:00 60.4 °F 48.6 °F 30 in SW 2 mph 2 mph 65 % 0 in
23:03 68.4 °F 50.5 °F 30.1 in Calm     53 % 0 in
23:08 68.2 °F 50.9 °F 30.1 in NNE 1.2 mph 1.2 mph 54 % 0 in
23:10 60.1 °F 48.4 °F 30 in SW 1 mph 2 mph 65 % 0 in
23:13 68.2 °F 50.9 °F 30.1 in NNE 1.4 mph 1.4 mph 54 % 0 in
23:18 68.2 °F 50.9 °F 30.1 in NE 2.3 mph 2.3 mph 54 % 0 in
23:20 60.1 °F 48.4 °F 30 in WSW 1 mph 2 mph 65 % 0 in
23:23 68 °F 51.3 °F 30.1 in Calm     55 % 0 in
23:28 67.8 °F 51.1 °F 30.1 in Calm     55 % 0 in
23:30 60.1 °F 48.4 °F 30 in SW 1 mph 1 mph 65 % 0 in
23:33 67.6 °F 50.9 °F 30.1 in Calm     55 % 0 in
23:38 67.5 °F 50.7 °F 30 in Calm     55 % 0 in
23:40 60.3 °F 48.9 °F 30 in Calm   1 mph 66 % 0 in
23:43 67.3 °F 51.1 °F 30 in Calm     56 % 0 in
23:48 67.3 °F 51.1 °F 30 in NE 1.2 mph   56 % 0 in
23:50 60.1 °F 48.7 °F 30 in Calm     66 % 0 in
23:53 67.3 °F 51.1 °F 30.1 in Calm     56 % 0 in
23:58 67.1 °F 51.4 °F 30.1 in Calm     57 % 0 in
Meteo Sesrovires
Elogis d' Weather Underground - 3.75 mb

Guio original per  Jim McMurry - jmcmurry@mwt.net Adaptat per a la plantilla per  Wim van der Kuil - Leuven-Template.eu

Trobareu la nostra informacio del temps tambe a:

Weather Underground

AWEKAS